Time;durP1;ratioP1;P1;durP2;ratioP2;P2;SDS_P1;SDS_P2;PMS_P1;PMS_P2;Temp;Humidity;BMP_temperature;BMP_pressure;BME280_temperature;BME280_humidity;BME280_pressure;Samples;Min_cycle;Max_cycle;Signal;HPM_P1;HPM_P2
2023/09/16 11:01:17;;;;;;;6.38;2.15;;;36.90;99.90;;;;;;6334961;22;20644;-81
2023/09/16 11:08:58;;;;;;;7.10;2.38;;;36.50;99.90;;;;;;6259980;22;20395;-81
2023/09/16 11:11:23;;;;;;;7.17;2.53;;;36.30;99.90;;;;;;6248690;22;20446;-76
2023/09/16 11:13:50;;;;;;;7.20;2.72;;;36.60;99.90;;;;;;6273612;22;20900;-80
2023/09/16 11:16:16;;;;;;;6.73;2.63;;;37.00;99.90;;;;;;6273182;22;20383;-80
2023/09/16 11:18:43;;;;;;;6.47;2.33;;;37.20;99.90;;;;;;6272512;22;20364;-80
2023/09/16 11:21:11;;;;;;;7.10;2.55;;;37.20;99.90;;;;;;6273887;22;20382;-80
2023/09/16 11:23:37;;;;;;;6.43;2.13;;;36.60;99.90;;;;;;6274088;22;20451;-79
2023/09/16 11:26:04;;;;;;;6.30;2.47;;;35.40;99.90;;;;;;6273168;22;20361;-80
2023/09/16 11:28:29;;;;;;;7.13;2.38;;;34.30;99.90;;;;;;6271173;22;20364;-78
2023/09/16 11:30:57;;;;;;;6.45;2.15;;;33.70;99.90;;;;;;6271040;22;20693;-79
2023/09/16 11:33:28;;;;;;;6.03;2.10;;;33.40;99.90;;;;;;6270391;22;20365;-78
2023/09/16 11:36:15;;;;;;;6.67;2.13;;;33.00;99.90;;;;;;6270423;22;20964;-79
2023/09/16 11:39:06;;;;;;;8.00;3.00;;;32.80;99.90;;;;;;6271099;22;20357;-79
2023/09/16 11:41:31;;;;;;;6.40;2.00;;;32.70;99.90;;;;;;6274137;22;20365;-79
2023/09/16 11:43:57;;;;;;;6.20;1.90;;;32.70;99.90;;;;;;6246254;22;20459;-79
2023/09/16 11:46:26;;;;;;;7.20;2.20;;;32.80;99.90;;;;;;6272074;22;20380;-79
2023/09/16 11:48:56;;;;;;;6.33;2.10;;;32.60;99.90;;;;;;6270885;22;20410;-79
2023/09/16 11:51:25;;;;;;;6.45;2.22;;;32.60;99.90;;;;;;6270825;22;20465;-79
2023/09/16 11:53:53;;;;;;;6.20;1.60;;;32.80;99.90;;;;;;6270466;22;20367;-78
2023/09/16 11:56:25;;;;;;;7.32;2.10;;;32.80;99.90;;;;;;6274801;22;20353;-79
2023/09/16 11:58:54;;;;;;;6.35;1.70;;;32.80;99.90;;;;;;6271740;22;20361;-78
2023/09/16 12:01:22;;;;;;;6.00;1.92;;;33.00;99.90;;;;;;6272229;22;20352;-78
2023/09/16 12:03:49;;;;;;;6.32;1.80;;;32.90;99.90;;;;;;6270332;22;20825;-79
2023/09/16 12:06:17;;;;;;;6.40;1.90;;;32.80;99.90;;;;;;6244337;22;20368;-78
2023/09/16 12:08:45;;;;;;;7.40;2.33;;;32.60;99.90;;;;;;6274558;22;20356;-79
2023/09/16 12:11:10;;;;;;;6.20;1.63;;;32.60;99.90;;;;;;6276306;22;20394;-79
2023/09/16 12:13:39;;;;;;;6.72;1.98;;;32.90;99.90;;;;;;6275248;22;20360;-78
2023/09/16 12:16:05;;;;;;;6.78;1.83;;;32.60;99.90;;;;;;6272025;22;20777;-78
2023/09/16 12:18:30;;;;;;;5.40;1.33;;;32.40;99.90;;;;;;6242811;22;20396;-79
2023/09/16 12:20:56;;;;;;;6.00;1.80;;;32.30;99.90;;;;;;6273077;22;20357;-79
2023/09/16 12:23:24;;;;;;;6.00;1.70;;;32.50;99.90;;;;;;6273753;22;20701;-79
2023/09/16 12:25:50;;;;;;;6.30;2.20;;;32.50;99.90;;;;;;6270243;22;20393;-78
2023/09/16 12:28:20;;;;;;;5.90;1.70;;;32.50;99.90;;;;;;6270848;22;20364;-78
2023/09/16 12:30:52;;;;;;;5.97;1.85;;;32.50;99.90;;;;;;6273649;22;20360;-80
2023/09/16 12:33:19;;;;;;;5.40;1.48;;;32.00;99.90;;;;;;6276680;22;20368;-81
2023/09/16 12:35:48;;;;;;;6.53;2.10;;;31.90;99.90;;;;;;6275121;22;20360;-80
2023/09/16 12:38:17;;;;;;;5.70;1.77;;;31.90;99.90;;;;;;6277203;22;20379;-80
2023/09/16 12:40:44;;;;;;;5.82;1.67;;;32.10;99.90;;;;;;6275861;22;20821;-80
2023/09/16 12:43:11;;;;;;;5.20;1.60;;;32.10;99.90;;;;;;6276717;22;20367;-79
2023/09/16 12:45:39;;;;;;;6.57;1.57;;;31.90;99.90;;;;;;6281575;22;20367;-80
2023/09/16 12:48:06;;;;;;;5.63;1.70;;;31.60;99.90;;;;;;6276354;22;20385;-78
2023/09/16 12:50:32;;;;;;;5.40;1.40;;;31.70;99.90;;;;;;6270688;22;20356;-78
2023/09/16 12:52:58;;;;;;;5.82;1.40;;;31.80;99.90;;;;;;6273939;22;20399;-79
2023/09/16 12:55:25;;;;;;;5.47;1.60;;;31.90;99.90;;;;;;6271531;22;20450;-79
2023/09/16 12:57:52;;;;;;;7.65;1.70;;;31.80;99.90;;;;;;6271782;22;20363;-79
2023/09/16 13:00:23;;;;;;;5.53;1.50;;;32.10;99.90;;;;;;6244431;22;20813;-79
2023/09/16 13:02:49;;;;;;;5.55;1.60;;;32.40;99.90;;;;;;6270605;22;20709;-79
2023/09/16 13:05:27;;;;;;;5.40;1.40;;;32.50;99.90;;;;;;6273938;22;20368;-79
2023/09/16 13:07:56;;;;;;;5.95;1.40;;;32.60;99.90;;;;;;6273481;22;20828;-79
2023/09/16 13:10:22;;;;;;;5.65;1.50;;;32.70;99.90;;;;;;6274384;22;20418;-80
2023/09/16 13:12:48;;;;;;;5.35;1.33;;;32.80;99.90;;;;;;6273688;22;20380;-79
2023/09/16 13:15:20;;;;;;;5.68;1.50;;;32.80;99.90;;;;;;6273550;22;20360;-79
2023/09/16 13:17:57;;;;;;;6.38;1.50;;;32.70;99.90;;;;;;6272592;22;20352;-79
2023/09/16 13:20:24;;;;;;;5.87;1.50;;;32.70;99.90;;;;;;6270559;22;20481;-78
2023/09/16 13:22:55;;;;;;;5.67;1.40;;;32.70;99.90;;;;;;6271133;22;20360;-79
2023/09/16 13:25:38;;;;;;;5.65;1.50;;;32.70;99.90;;;;;;6271009;22;20361;-80
2023/09/16 13:28:10;;;;;;;5.30;1.33;;;33.00;99.90;;;;;;6271285;22;20376;-80
2023/09/16 13:30:37;;;;;;;6.13;1.42;;;32.90;99.90;;;;;;6270371;22;20717;-78
2023/09/16 13:33:05;;;;;;;5.15;1.30;;;33.20;99.90;;;;;;6271375;22;20436;-79
2023/09/16 13:35:38;;;;;;;5.70;1.40;;;33.30;99.90;;;;;;6272112;22;20740;-79
2023/09/16 13:38:06;;;;;;;5.30;1.48;;;33.00;99.90;;;;;;6272090;22;20813;-79
2023/09/16 13:40:33;;;;;;;5.60;1.50;;;32.70;99.90;;;;;;6271151;22;20360;-78
2023/09/16 13:43:01;;;;;;;6.95;1.40;;;32.80;99.90;;;;;;6272418;22;20417;-78
2023/09/16 13:45:27;;;;;;;6.50;1.38;;;32.70;99.90;;;;;;6277878;22;20363;-81
2023/09/16 13:48:21;;;;;;;5.20;1.30;;;32.60;99.90;;;;;;6276146;22;20360;-81
2023/09/16 13:50:48;;;;;;;6.60;2.00;;;32.30;99.90;;;;;;6272820;22;20361;-78
2023/09/16 13:53:18;;;;;;;6.88;1.70;;;31.90;99.90;;;;;;6275382;22;20753;-79
2023/09/16 13:55:46;;;;;;;5.80;1.70;;;31.50;99.90;;;;;;6271629;22;20445;-80
2023/09/16 13:58:12;;;;;;;5.72;1.55;;;31.20;99.90;;;;;;6275633;22;20432;-80
2023/09/16 14:00:38;;;;;;;5.90;1.50;;;31.20;99.90;;;;;;6276016;22;20417;-80
2023/09/16 14:03:07;;;;;;;5.60;1.70;;;31.10;99.90;;;;;;6274518;22;20818;-81
2023/09/16 14:05:35;;;;;;;5.40;1.20;;;31.30;99.90;;;;;;6275437;22;20356;-80
2023/09/16 14:08:01;;;;;;;5.80;1.42;;;31.30;99.90;;;;;;6270241;22;20360;-79
2023/09/16 14:10:28;;;;;;;6.03;1.67;;;31.60;99.90;;;;;;6269640;22;20778;-79
2023/09/16 14:12:58;;;;;;;5.60;1.35;;;31.80;99.90;;;;;;6269970;22;20416;-79
2023/09/16 14:15:25;;;;;;;5.90;1.75;;;32.10;99.90;;;;;;6271678;22;20376;-78
2023/09/16 14:17:51;;;;;;;5.95;2.00;;;32.30;99.90;;;;;;6273301;22;20959;-80
2023/09/16 14:20:18;;;;;;;5.70;1.60;;;32.30;99.90;;;;;;6276498;22;20367;-79
2023/09/16 14:22:44;;;;;;;5.60;1.40;;;32.30;99.90;;;;;;6276395;22;20810;-79
2023/09/16 14:25:11;;;;;;;6.13;1.60;;;32.60;99.90;;;;;;6247399;22;20360;-79
2023/09/16 14:27:42;;;;;;;5.50;1.42;;;32.70;99.90;;;;;;6274027;22;20828;-78
2023/09/16 14:30:10;;;;;;;6.15;1.85;;;32.70;99.90;;;;;;6272127;22;20459;-78
2023/09/16 14:32:37;;;;;;;5.93;1.90;;;32.30;99.90;;;;;;6271968;22;20400;-79
2023/09/16 14:35:03;;;;;;;5.60;1.50;;;31.90;99.90;;;;;;6273889;22;20755;-79
2023/09/16 14:37:29;;;;;;;5.93;1.38;;;31.80;99.90;;;;;;6274122;22;20364;-80
2023/09/16 14:39:55;;;;;;;7.25;1.65;;;31.70;99.90;;;;;;6274407;22;20368;-80
2023/09/16 14:42:21;;;;;;;6.43;1.80;;;31.50;99.90;;;;;;6274301;22;20811;-79
2023/09/16 14:44:48;;;;;;;6.20;2.00;;;31.50;99.90;;;;;;6275935;22;20731;-80
2023/09/16 14:47:13;;;;;;;5.75;1.70;;;31.60;99.90;;;;;;6283528;22;20664;-80
2023/09/16 14:49:41;;;;;;;5.60;1.50;;;31.60;99.90;;;;;;6286996;22;20453;-80
2023/09/16 14:52:06;;;;;;;5.55;1.58;;;31.40;99.90;;;;;;6284923;22;20402;-80
2023/09/16 14:54:32;;;;;;;5.70;1.40;;;31.50;99.90;;;;;;6277325;22;20778;-80
2023/09/16 14:56:57;;;;;;;6.63;1.77;;;31.50;99.90;;;;;;6277639;22;20427;-81
2023/09/16 14:59:23;;;;;;;5.83;1.67;;;31.50;99.90;;;;;;6250775;22;20669;-80
2023/09/16 15:01:49;;;;;;;5.43;1.10;;;31.50;99.90;;;;;;6276542;22;20347;-80
2023/09/16 15:04:16;;;;;;;8.33;1.70;;;31.40;99.90;;;;;;6277113;22;20380;-80
2023/09/16 15:06:42;;;;;;;6.60;1.90;;;31.30;99.90;;;;;;6284836;22;20348;-80
2023/09/16 15:09:09;;;;;;;5.45;1.38;;;31.20;99.90;;;;;;6283114;22;20360;-80
2023/09/16 15:11:35;;;;;;;6.13;1.85;;;31.30;99.90;;;;;;6286193;22;20392;-81
2023/09/16 15:14:00;;;;;;;5.60;1.70;;;31.30;99.90;;;;;;6279730;22;20360;-80
2023/09/16 15:16:26;;;;;;;6.00;1.70;;;31.30;99.90;;;;;;6273936;22;20410;-79
2023/09/16 15:18:52;;;;;;;6.10;1.80;;;31.30;99.90;;;;;;6272730;22;20423;-79
2023/09/16 15:21:18;;;;;;;5.72;1.75;;;31.30;99.90;;;;;;6272666;22;20348;-79
2023/09/16 15:23:43;;;;;;;6.50;2.03;;;31.40;99.90;;;;;;6272397;22;20364;-79
2023/09/16 15:26:09;;;;;;;7.13;2.00;;;31.30;99.90;;;;;;6270878;22;20360;-77
2023/09/16 15:28:34;;;;;;;6.83;2.00;;;31.40;99.90;;;;;;6270454;22;20402;-77
2023/09/16 15:31:00;;;;;;;6.57;2.10;;;31.50;99.90;;;;;;6270284;22;20382;-76
2023/09/16 15:33:26;;;;;;;5.88;1.88;;;31.60;99.90;;;;;;6271158;22;20390;-78
2023/09/16 15:35:51;;;;;;;6.05;1.95;;;31.70;99.90;;;;;;6271269;22;20447;-78
2023/09/16 15:38:17;;;;;;;7.18;2.05;;;31.70;99.90;;;;;;6272300;22;20360;-79
2023/09/16 15:40:42;;;;;;;6.20;1.90;;;31.60;99.90;;;;;;6271419;22;20357;-78
2023/09/16 15:43:08;;;;;;;8.73;2.37;;;31.30;99.90;;;;;;6270483;22;20418;-78
2023/09/16 15:45:36;;;;;;;6.10;2.25;;;31.20;99.90;;;;;;6270118;22;20444;-78
2023/09/16 15:48:02;;;;;;;6.60;2.22;;;31.00;99.90;;;;;;6270303;22;20357;-78
2023/09/16 15:50:28;;;;;;;6.20;2.00;;;30.90;99.90;;;;;;6270467;22;20440;-79
2023/09/16 15:52:54;;;;;;;6.70;2.40;;;30.90;99.90;;;;;;6270801;22;20380;-75
2023/09/16 15:55:19;;;;;;;6.25;2.08;;;30.80;99.90;;;;;;6270772;22;20364;-75
2023/09/16 15:57:45;;;;;;;6.85;2.35;;;30.90;99.90;;;;;;6271107;22;20352;-74
2023/09/16 16:00:12;;;;;;;7.28;2.25;;;30.80;99.90;;;;;;6270564;22;20396;-75
2023/09/16 16:02:38;;;;;;;7.23;2.23;;;30.80;99.90;;;;;;6270289;22;20345;-75
2023/09/16 16:05:04;;;;;;;6.38;2.40;;;30.80;99.90;;;;;;6270002;22;20827;-76
2023/09/16 16:07:30;;;;;;;5.70;1.70;;;30.70;99.90;;;;;;6270074;22;20356;-75
2023/09/16 16:09:56;;;;;;;7.30;2.40;;;30.70;99.90;;;;;;6269675;22;20452;-75
2023/09/16 16:12:22;;;;;;;6.50;1.90;;;30.60;99.90;;;;;;6270934;22;20426;-79
2023/09/16 16:14:48;;;;;;;7.17;2.17;;;30.50;99.90;;;;;;6270314;22;20858;-77
2023/09/16 16:17:14;;;;;;;7.33;2.17;;;30.30;99.90;;;;;;6275860;22;20558;-79
2023/09/16 16:19:39;;;;;;;7.53;2.35;;;30.30;99.90;;;;;;6271707;22;20447;-78
2023/09/16 16:22:05;;;;;;;6.18;1.98;;;30.20;99.90;;;;;;6272736;22;20447;-79
2023/09/16 16:24:31;;;;;;;6.90;2.30;;;30.20;99.90;;;;;;6270914;22;20390;-79
2023/09/16 16:26:56;;;;;;;7.30;2.20;;;30.30;99.90;;;;;;6270870;22;20364;-79
2023/09/16 16:29:22;;;;;;;6.30;2.00;;;30.20;99.90;;;;;;6272034;22;20383;-79
2023/09/16 16:31:48;;;;;;;6.30;2.00;;;30.10;99.90;;;;;;6271640;22;20462;-79
2023/09/16 16:34:14;;;;;;;6.20;2.17;;;30.10;99.90;;;;;;6272156;22;20387;-79
2023/09/16 16:36:39;;;;;;;6.40;2.30;;;30.00;99.90;;;;;;6271374;22;20379;-78
2023/09/16 16:39:05;;;;;;;6.10;2.00;;;29.90;99.90;;;;;;6278456;22;20388;-79
2023/09/16 16:41:31;;;;;;;7.43;1.80;;;30.00;99.90;;;;;;6275730;22;20683;-79
2023/09/16 16:43:56;;;;;;;6.63;2.20;;;29.90;99.90;;;;;;6271803;22;20438;-79
2023/09/16 16:46:26;;;;;;;7.60;2.20;;;29.90;99.90;;;;;;6271676;22;20368;-79
2023/09/16 16:48:51;;;;;;;6.10;1.80;;;29.90;99.90;;;;;;6273558;22;20348;-79
2023/09/16 16:51:18;;;;;;;6.53;2.10;;;29.90;99.90;;;;;;6280880;22;20921;-79
2023/09/16 16:53:44;;;;;;;6.38;1.98;;;29.70;99.90;;;;;;6280485;22;20368;-79
2023/09/16 16:56:10;;;;;;;7.27;1.90;;;29.60;99.90;;;;;;6280512;22;20412;-79
2023/09/16 16:58:37;;;;;;;6.20;2.10;;;29.40;99.90;;;;;;6278081;22;20394;-79
2023/09/16 17:01:02;;;;;;;6.80;2.30;;;29.30;99.90;;;;;;6273244;22;20439;-79
2023/09/16 17:03:28;;;;;;;7.10;2.30;;;29.10;99.90;;;;;;6271887;22;20442;-79
2023/09/16 17:05:53;;;;;;;6.13;1.80;;;29.10;99.90;;;;;;6271696;22;20368;-79
2023/09/16 17:08:19;;;;;;;6.40;2.10;;;28.90;99.90;;;;;;6271661;22;20359;-79
2023/09/16 17:10:44;;;;;;;7.03;2.50;;;28.80;99.90;;;;;;6271836;22;20395;-79
2023/09/16 17:13:10;;;;;;;6.75;2.20;;;28.70;99.90;;;;;;6272216;22;20418;-79
2023/09/16 17:15:39;;;;;;;6.45;1.60;;;28.70;99.90;;;;;;6271534;22;20403;-81
2023/09/16 17:18:04;;;;;;;6.37;2.10;;;28.50;99.90;;;;;;6270704;22;20832;-78
2023/09/16 17:20:30;;;;;;;6.70;2.08;;;28.40;99.90;;;;;;6270451;22;20356;-78
2023/09/16 17:22:55;;;;;;;6.37;2.20;;;28.30;99.90;;;;;;6270521;22;20882;-78
2023/09/16 17:25:21;;;;;;;6.90;2.07;;;28.20;99.90;;;;;;6270561;22;20811;-79
2023/09/16 17:27:46;;;;;;;6.70;1.80;;;28.20;99.90;;;;;;6272691;22;20352;-79
2023/09/16 17:30:12;;;;;;;7.53;2.10;;;28.00;99.90;;;;;;6270184;22;20368;-78
2023/09/16 17:32:38;;;;;;;7.00;2.72;;;28.10;99.90;;;;;;6270628;22;20465;-78
2023/09/16 17:35:04;;;;;;;6.83;2.60;;;28.10;99.90;;;;;;6270706;22;20674;-78
2023/09/16 17:37:31;;;;;;;8.48;2.60;;;27.90;99.90;;;;;;6270311;22;20537;-77
2023/09/16 17:39:57;;;;;;;7.03;2.15;;;27.80;99.90;;;;;;6268807;22;20360;-78
2023/09/16 17:42:22;;;;;;;7.57;2.65;;;27.70;99.90;;;;;;6242195;22;20757;-77
2023/09/16 17:44:48;;;;;;;7.80;2.85;;;27.60;99.90;;;;;;6270530;22;20811;-77
2023/09/16 17:47:14;;;;;;;8.70;2.83;;;27.40;99.90;;;;;;6271115;22;20371;-77
2023/09/16 17:49:40;;;;;;;5.80;1.90;;;27.40;99.90;;;;;;6271807;22;20458;-77
2023/09/16 17:52:08;;;;;;;5.72;1.98;;;27.30;99.90;;;;;;6268165;22;20776;-78
2023/09/16 17:54:35;;;;;;;8.45;2.72;;;27.30;99.90;;;;;;6270874;22;20885;-77
2023/09/16 17:57:01;;;;;;;6.25;2.25;;;27.30;99.90;;;;;;6271148;22;20470;-78
2023/09/16 17:59:26;;;;;;;6.40;2.50;;;27.20;99.90;;;;;;6272012;22;20387;-77
2023/09/16 18:01:52;;;;;;;7.30;2.47;;;27.20;99.90;;;;;;6271300;22;20465;-78
2023/09/16 18:04:20;;;;;;;7.65;2.60;;;27.20;99.90;;;;;;6271051;22;20451;-78
2023/09/16 18:06:46;;;;;;;6.82;2.20;;;27.20;99.90;;;;;;6273580;22;20360;-77
2023/09/16 18:09:12;;;;;;;7.82;2.50;;;27.30;99.90;;;;;;6273012;22;20831;-77
2023/09/16 18:11:37;;;;;;;6.65;2.35;;;27.30;99.90;;;;;;6271503;22;20395;-77
2023/09/16 18:14:03;;;;;;;7.32;2.83;;;27.20;99.90;;;;;;6272741;22;20440;-78
2023/09/16 18:16:31;;;;;;;7.37;2.83;;;27.10;99.90;;;;;;6272054;22;20358;-77
2023/09/16 18:18:56;;;;;;;7.45;3.00;;;27.10;99.90;;;;;;6271926;22;20369;-77
2023/09/16 18:21:22;;;;;;;9.10;3.05;;;27.00;99.90;;;;;;6272106;22;20440;-77
2023/09/16 18:23:49;;;;;;;8.13;2.90;;;27.00;99.90;;;;;;6273192;22;20443;-77
2023/09/16 18:26:15;;;;;;;7.30;2.33;;;26.90;99.90;;;;;;6273448;22;20911;-77
2023/09/16 18:28:40;;;;;;;6.37;2.43;;;26.90;99.90;;;;;;6272145;22;20384;-77
2023/09/16 18:31:06;;;;;;;6.53;2.10;;;26.90;99.90;;;;;;6271526;22;20384;-77
2023/09/16 18:33:31;;;;;;;7.00;2.90;;;26.80;99.90;;;;;;6271513;22;20372;-77
2023/09/16 18:35:57;;;;;;;7.00;2.60;;;26.70;99.90;;;;;;6272530;22;20371;-77
2023/09/16 18:38:23;;;;;;;8.10;2.20;;;26.70;99.90;;;;;;6271672;22;21103;-78
2023/09/16 18:40:51;;;;;;;6.45;2.25;;;26.70;99.90;;;;;;6272048;22;20759;-77
2023/09/16 18:43:18;;;;;;;7.00;2.33;;;26.70;99.90;;;;;;6275883;22;20444;-78
2023/09/16 18:45:44;;;;;;;7.55;3.05;;;26.70;99.90;;;;;;6274885;22;20392;-77
2023/09/16 18:48:09;;;;;;;7.10;2.70;;;26.80;99.90;;;;;;6273861;22;20380;-77
2023/09/16 18:50:36;;;;;;;7.27;2.57;;;26.80;99.90;;;;;;6272436;22;20360;-77
2023/09/16 18:53:02;;;;;;;8.15;2.67;;;26.70;99.90;;;;;;6272013;22;20387;-77
2023/09/16 18:55:28;;;;;;;9.70;3.50;;;26.70;99.90;;;;;;6271993;22;20368;-77
2023/09/16 18:57:54;;;;;;;9.05;2.92;;;26.70;99.90;;;;;;6272741;22;20349;-77
2023/09/16 19:00:19;;;;;;;9.70;3.20;;;26.60;99.90;;;;;;6274062;22;20392;-77
2023/09/16 19:02:45;;;;;;;9.60;3.15;;;26.50;99.90;;;;;;6273915;22;20392;-76
2023/09/16 19:05:11;;;;;;;8.32;3.20;;;26.40;99.90;;;;;;6272278;22;20372;-77
2023/09/16 19:07:36;;;;;;;8.20;3.20;;;26.10;99.90;;;;;;6277465;22;20363;-77
2023/09/16 19:10:03;;;;;;;9.10;3.10;;;25.90;99.90;;;;;;6275945;22;20696;-77
2023/09/16 19:12:28;;;;;;;7.13;2.90;;;25.80;99.90;;;;;;6276244;22;20380;-77
2023/09/16 19:14:54;;;;;;;12.75;4.20;;;25.70;1.00;;;;;;6275084;22;20459;-78
2023/09/16 19:17:19;;;;;;;10.55;4.60;;;25.60;1.00;;;;;;6277765;22;20357;-78
2023/09/16 19:19:45;;;;;;;11.43;4.07;;;25.60;1.00;;;;;;6276484;22;20352;-78
2023/09/16 19:22:10;;;;;;;9.70;3.90;;;25.50;1.00;;;;;;6275655;22;20368;-78
2023/09/16 19:24:38;;;;;;;13.73;3.20;;;25.40;1.00;;;;;;6278438;22;20443;-78
2023/09/16 19:27:06;;;;;;;8.10;3.28;;;25.40;1.00;;;;;;6279925;22;20833;-79
2023/09/16 19:29:32;;;;;;;8.40;3.05;;;25.30;1.00;;;;;;6279943;22;20374;-79
2023/09/16 19:31:59;;;;;;;7.20;3.10;;;25.40;99.90;;;;;;6279530;22;20708;-79
2023/09/16 19:34:30;;;;;;;7.80;2.70;;;25.50;99.90;;;;;;6277589;22;20897;-79
2023/09/16 19:36:59;;;;;;;9.98;2.90;;;25.60;99.90;;;;;;6280288;22;21161;-79
2023/09/16 19:39:27;;;;;;;8.30;2.93;;;25.60;99.90;;;;;;6277424;22;20942;-79
2023/09/16 19:41:54;;;;;;;6.53;2.60;;;25.60;99.90;;;;;;6275570;22;20363;-79
2023/09/16 19:44:20;;;;;;;7.30;3.00;;;25.60;99.90;;;;;;6275650;22;20355;-79
2023/09/16 19:46:47;;;;;;;8.20;3.08;;;25.60;99.90;;;;;;6273574;22;20360;-78
2023/09/16 19:49:14;;;;;;;8.03;3.80;;;25.70;99.90;;;;;;6273428;22;20359;-78
2023/09/16 19:51:39;;;;;;;9.90;2.80;;;25.60;99.90;;;;;;6273009;22;20395;-79
2023/09/16 19:54:05;;;;;;;7.40;2.60;;;25.60;99.90;;;;;;6274302;22;20353;-78
2023/09/16 19:56:30;;;;;;;8.17;2.77;;;25.40;1.00;;;;;;6272735;22;20360;-78
2023/09/16 19:58:56;;;;;;;8.00;2.80;;;25.20;1.00;;;;;;6274707;22;20356;-77
2023/09/16 20:01:21;;;;;;;7.80;3.20;;;25.00;1.00;;;;;;6275075;22;20361;-79
2023/09/16 20:03:47;;;;;;;8.10;3.30;;;25.00;1.00;;;;;;6287267;22;20356;-79
2023/09/16 20:06:15;;;;;;;10.23;3.53;;;24.90;1.00;;;;;;6287987;22;20399;-80
2023/09/16 20:08:41;;;;;;;9.77;3.50;;;24.80;1.00;;;;;;6260545;22;20364;-79
2023/09/16 20:11:07;;;;;;;7.90;2.80;;;24.70;1.00;;;;;;6288373;22;21036;-79
2023/09/16 20:13:33;;;;;;;8.90;3.57;;;24.70;1.00;;;;;;6292780;22;20424;-79
2023/09/16 20:16:14;;;;;;;7.43;3.28;;;24.70;1.00;;;;;;6292996;22;20424;-79
2023/09/16 20:18:40;;;;;;;7.93;3.00;;;24.80;1.00;;;;;;6266206;22;20461;-79
2023/09/16 20:21:06;;;;;;;8.83;3.50;;;24.70;1.00;;;;;;6292508;22;20356;-79
2023/09/16 20:23:47;;;;;;;8.48;3.00;;;24.70;1.00;;;;;;6294057;22;20752;-79
2023/09/16 20:26:13;;;;;;;8.27;3.13;;;24.80;1.00;;;;;;6295620;22;20451;-79
2023/09/16 20:28:39;;;;;;;7.47;3.03;;;24.90;1.00;;;;;;6294992;22;20364;-79
2023/09/16 20:31:04;;;;;;;7.20;3.00;;;25.00;1.00;;;;;;6294005;22;20378;-79
2023/09/16 20:33:30;;;;;;;7.72;3.17;;;25.00;1.00;;;;;;6288700;22;20420;-79
2023/09/16 20:35:56;;;;;;;7.30;3.10;;;24.90;1.00;;;;;;6261852;22;20462;-79
2023/09/16 20:38:21;;;;;;;8.20;3.40;;;25.00;1.00;;;;;;6287863;22;20361;-79
2023/09/16 20:40:47;;;;;;;7.97;3.20;;;25.10;1.00;;;;;;6288235;22;20485;-79
2023/09/16 20:43:12;;;;;;;8.83;3.40;;;25.20;1.00;;;;;;6288714;22;20363;-79
2023/09/16 20:45:38;;;;;;;10.30;3.63;;;25.10;1.00;;;;;;6260406;22;20436;-79
2023/09/16 20:48:04;;;;;;;8.30;3.30;;;25.00;1.00;;;;;;6288004;22;20345;-79
2023/09/16 20:50:34;;;;;;;8.25;3.40;;;24.80;1.00;;;;;;6288470;22;20352;-79
2023/09/16 20:52:59;;;;;;;9.07;3.45;;;24.70;1.00;;;;;;6287671;22;20384;-79
2023/09/16 20:55:25;;;;;;;8.30;3.28;;;24.50;1.00;;;;;;6287200;22;20383;-79
2023/09/16 20:57:50;;;;;;;8.83;3.90;;;24.50;1.00;;;;;;6287441;22;20752;-79
2023/09/16 21:00:16;;;;;;;8.80;3.53;;;24.40;1.00;;;;;;6285282;22;20372;-79
2023/09/16 21:02:42;;;;;;;8.80;3.40;;;24.30;1.00;;;;;;6272886;22;20819;-79
2023/09/16 21:05:07;;;;;;;9.10;3.13;;;24.30;1.00;;;;;;6274823;22;20364;-79
2023/09/16 21:07:33;;;;;;;8.63;3.90;;;24.30;11.80;;;;;;6282211;22;20360;-80
2023/09/16 21:09:58;;;;;;;7.93;4.10;;;24.30;1.00;;;;;;6275272;22;20451;-80
2023/09/16 21:12:24;;;;;;;10.37;4.47;;;24.40;4.60;;;;;;6274138;22;20395;-80
2023/09/16 21:14:49;;;;;;;8.93;3.60;;;24.40;1.00;;;;;;6273598;22;20884;-80
2023/09/16 21:17:15;;;;;;;8.70;4.00;;;24.30;1.00;;;;;;6273517;22;20421;-80
2023/09/16 21:19:42;;;;;;;11.20;4.37;;;24.30;1.00;;;;;;6273312;22;20360;-80
2023/09/16 21:22:07;;;;;;;8.13;3.57;;;24.20;10.60;;;;;;6273158;22;20413;-79
2023/09/16 21:24:33;;;;;;;9.47;3.90;;;24.10;87.20;;;;;;6281359;22;20368;-79
2023/09/16 21:26:59;;;;;;;9.70;4.00;;;24.10;99.90;;;;;;6284410;22;20363;-79
2023/09/16 21:29:25;;;;;;;9.35;4.10;;;24.20;99.90;;;;;;6283665;22;20365;-79
2023/09/16 21:31:50;;;;;;;9.05;4.18;;;24.20;99.90;;;;;;6248629;22;20394;-79
2023/09/16 21:34:16;;;;;;;9.50;3.77;;;24.30;86.00;;;;;;6274829;22;20448;-79
2023/09/16 21:36:43;;;;;;;9.60;3.63;;;24.10;99.90;;;;;;6274127;22;20364;-79
2023/09/16 21:39:10;;;;;;;10.07;3.72;;;24.20;99.90;;;;;;6274619;22;20375;-80
2023/09/16 21:41:36;;;;;;;8.95;4.00;;;24.10;99.90;;;;;;6274701;22;20498;-80
2023/09/16 21:44:01;;;;;;;8.10;3.90;;;24.10;99.90;;;;;;6273811;22;20368;-80
2023/09/16 21:46:29;;;;;;;10.00;3.60;;;24.10;1.00;;;;;;6273728;22;20379;-80
2023/09/16 21:48:55;;;;;;;10.20;3.40;;;24.10;1.00;;;;;;6274602;22;20356;-80
2023/09/16 21:51:20;;;;;;;8.67;4.10;;;24.00;1.00;;;;;;6273674;22;20387;-80
2023/09/16 21:53:45;;;;;;;8.07;3.57;;;24.00;1.00;;;;;;6274742;22;20356;-80
2023/09/16 21:56:11;;;;;;;9.70;3.83;;;24.00;1.00;;;;;;6274025;22;20824;-80
2023/09/16 21:58:37;;;;;;;8.97;3.80;;;23.90;99.90;;;;;;6246781;22;20365;-80
2023/09/16 22:01:02;;;;;;;8.00;3.55;;;23.90;99.90;;;;;;6275874;22;20436;-80
2023/09/16 22:03:29;;;;;;;8.32;3.58;;;23.80;1.00;;;;;;6282253;22;20356;-80
2023/09/16 22:05:54;;;;;;;8.93;4.00;;;23.70;1.00;;;;;;6282043;22;20404;-80
2023/09/16 22:08:20;;;;;;;10.23;4.20;;;23.50;1.00;;;;;;6281067;22;20406;-80
2023/09/16 22:10:46;;;;;;;9.23;4.00;;;23.50;99.90;;;;;;6280477;22;20431;-80
2023/09/16 22:13:12;;;;;;;10.83;4.03;;;23.50;99.90;;;;;;6274867;22;20747;-80
2023/09/16 22:15:38;;;;;;;8.43;3.90;;;23.60;99.90;;;;;;6274278;22;20737;-79
2023/09/16 22:18:05;;;;;;;8.68;4.30;;;23.50;90.40;;;;;;6274436;22;20372;-79
2023/09/16 22:20:31;;;;;;;8.00;3.27;;;23.50;99.90;;;;;;6274620;22;20668;-79
2023/09/16 22:22:56;;;;;;;9.90;3.60;;;23.40;1.00;;;;;;6274514;22;20400;-79
2023/09/16 22:25:23;;;;;;;8.93;4.10;;;23.30;1.00;;;;;;6274257;22;20459;-80
2023/09/16 22:27:49;;;;;;;10.27;3.50;;;23.30;1.00;;;;;;6274380;22;20353;-80
2023/09/16 22:30:19;;;;;;;9.02;3.78;;;23.30;1.00;;;;;;6274174;22;20379;-80
2023/09/16 22:32:45;;;;;;;9.00;3.83;;;23.20;1.00;;;;;;6249579;22;20387;-80
2023/09/16 22:35:10;;;;;;;9.15;4.00;;;23.10;99.90;;;;;;6279819;22;20364;-79
2023/09/16 22:37:36;;;;;;;8.98;4.50;;;23.10;1.00;;;;;;6278841;22;20360;-79
2023/09/16 22:40:01;;;;;;;7.95;3.90;;;23.30;1.00;;;;;;6247880;22;20901;-79
2023/09/16 22:42:27;;;;;;;9.93;4.00;;;23.50;99.90;;;;;;6274753;22;20371;-79
2023/09/16 22:44:52;;;;;;;9.15;3.65;;;23.60;1.00;;;;;;6273867;22;20439;-79
2023/09/16 22:47:18;;;;;;;9.70;3.73;;;23.70;1.00;;;;;;6274151;22;20443;-79
2023/09/16 22:49:51;;;;;;;8.90;3.43;;;23.60;1.00;;;;;;6274782;22;20721;-80
2023/09/16 22:52:18;;;;;;;10.57;4.00;;;23.60;1.00;;;;;;6275630;22;20376;-79
2023/09/16 22:54:44;;;;;;;9.43;3.58;;;23.60;1.00;;;;;;6276644;22;20429;-79
2023/09/16 22:57:09;;;;;;;7.57;2.80;;;23.60;99.90;;;;;;6248717;22;20436;-79
2023/09/16 22:59:35;;;;;;;9.52;3.65;;;23.50;99.90;;;;;;6284308;22;20384;-79
2023/09/16 23:02:00;;;;;;;9.53;3.90;;;23.30;1.00;;;;;;6258173;22;20380;-79
2023/09/16 23:04:26;;;;;;;8.47;3.10;;;23.20;84.60;;;;;;6285684;22;20360;-79
2023/09/16 23:06:51;;;;;;;8.00;3.40;;;23.10;99.90;;;;;;6285930;22;20447;-80
2023/09/16 23:09:17;;;;;;;10.47;3.93;;;23.10;99.90;;;;;;6286716;22;20357;-80
2023/09/16 23:11:42;;;;;;;8.60;3.40;;;23.00;99.90;;;;;;6286968;22;20395;-80
2023/09/16 23:14:08;;;;;;;8.60;3.70;;;22.90;39.40;;;;;;6286041;22;20364;-80
2023/09/16 23:16:33;;;;;;;9.30;3.43;;;23.10;99.90;;;;;;6286501;22;20367;-80
2023/09/16 23:18:59;;;;;;;8.10;3.30;;;23.10;1.00;;;;;;6287227;22;20658;-80
2023/09/16 23:21:24;;;;;;;7.77;2.87;;;23.00;1.00;;;;;;6286860;22;20361;-80
2023/09/16 23:23:50;;;;;;;9.07;3.40;;;23.00;1.00;;;;;;6286526;22;20371;-80
2023/09/16 23:26:16;;;;;;;8.65;3.28;;;23.00;1.00;;;;;;6287266;22;20863;-80
2023/09/16 23:28:41;;;;;;;7.70;3.00;;;23.00;59.70;;;;;;6285596;22;20365;-80
2023/09/16 23:31:08;;;;;;;8.67;2.80;;;23.00;1.00;;;;;;6285307;22;20352;-80
2023/09/16 23:33:34;;;;;;;8.55;2.90;;;23.00;99.90;;;;;;6279352;22;20388;-79
2023/09/16 23:36:01;;;;;;;8.52;3.08;;;23.10;99.90;;;;;;6274371;22;20356;-79
2023/09/16 23:38:27;;;;;;;9.00;3.07;;;23.20;99.90;;;;;;6279318;22;20486;-79
2023/09/16 23:40:53;;;;;;;7.78;3.08;;;23.20;99.90;;;;;;6274445;22;20356;-79
2023/09/16 23:43:18;;;;;;;8.07;2.90;;;23.30;99.90;;;;;;6273609;22;20360;-79
2023/09/16 23:45:44;;;;;;;7.97;3.47;;;23.40;99.90;;;;;;6273151;22;20361;-79
2023/09/16 23:48:09;;;;;;;8.60;3.10;;;23.50;99.90;;;;;;6274186;22;20360;-79
2023/09/16 23:50:35;;;;;;;8.63;3.50;;;23.50;99.90;;;;;;6273929;22;20708;-79